Terminal Aerodrome Forecast
Issued by NWS Cleveland, OH

Current Version | Previous Version | Text Only | Print | Product List | Glossary On
Versions: 1 2 3 4 5 6 7 8 9 10 11 12 13 14 15 16
000
FTUS41 KCLE 292330
TAFYNG
TAF
KYNG 292330Z 3000/3024 22011KT P6SM SCT050 BKN120
     FM300500 20006KT P6SM VCSH BKN050
     FM301100 20007KT P6SM SCT050=

USA.gov is the U.S. government's official web portal to all federal, state and local government web resources and services.